createdAt,value
2018-05-27T00:00:01.839Z,50.07
2018-05-27T00:01:02.507Z,49.87
2018-05-27T00:02:01.847Z,50.16
2018-05-27T00:03:02.691Z,50.24
2018-05-27T00:04:02.171Z,50.26
2018-05-27T00:05:01.716Z,49.97
2018-05-27T00:06:02.542Z,49.77
2018-05-27T00:07:01.715Z,50.24
2018-05-27T00:08:01.613Z,49.58
2018-05-27T00:09:01.842Z,49.46
2018-05-27T00:10:01.702Z,49.58
2018-05-27T00:11:02.359Z,49.07
2018-05-27T00:12:01.655Z,49.29
2018-05-27T00:13:01.928Z,49.19
2018-05-27T00:14:02.038Z,49.19
2018-05-27T00:15:01.587Z,49.00
2018-05-27T00:16:01.442Z,49.00
2018-05-27T00:17:01.474Z,49.07
2018-05-27T00:18:01.521Z,48.88
2018-05-27T00:19:01.343Z,49.07
2018-05-27T00:20:01.434Z,49.07
2018-05-27T00:21:01.628Z,49.07
2018-05-27T00:22:01.271Z,49.17
2018-05-27T00:23:01.909Z,49.27
2018-05-27T00:24:01.276Z,49.17
2018-05-27T00:25:01.191Z,49.17
2018-05-27T00:26:01.683Z,49.17
2018-05-27T00:27:01.138Z,48.49
2018-05-27T00:28:01.226Z,48.71
2018-05-27T00:29:01.248Z,48.39
2018-05-27T00:30:01.096Z,48.79
2018-05-27T00:31:01.261Z,48.52
2018-05-27T00:32:01.356Z,48.88
2018-05-27T00:33:01.009Z,48.79
2018-05-27T00:34:01.041Z,48.79
2018-05-27T00:35:01.522Z,48.69
2018-05-27T00:36:00.964Z,48.79
2018-05-27T00:37:00.874Z,48.81
2018-05-27T00:38:00.837Z,48.90
2018-05-27T00:39:00.888Z,48.30
2018-05-27T00:40:01.315Z,48.59
2018-05-27T00:41:00.787Z,48.88
2018-05-27T00:42:00.957Z,48.88
2018-05-27T00:43:00.776Z,48.88
2018-05-27T00:44:00.930Z,48.97
2018-05-27T00:45:00.695Z,49.00
2018-05-27T00:46:00.681Z,49.00
2018-05-27T00:47:00.605Z,48.97
2018-05-27T00:48:01.174Z,48.88
2018-05-27T00:49:00.622Z,48.88
2018-05-27T00:50:00.627Z,49.07
2018-05-27T00:51:00.847Z,49.07
2018-05-27T00:52:00.526Z,48.97
2018-05-27T00:53:00.476Z,48.97
2018-05-27T00:54:00.425Z,48.97
2018-05-27T00:55:00.401Z,48.97
2018-05-27T00:56:00.464Z,49.07
2018-05-27T00:57:00.415Z,48.88
2018-05-27T00:58:00.299Z,48.88
2018-05-27T00:59:00.286Z,48.97
2018-05-27T01:00:00.373Z,48.88
2018-05-27T01:01:00.249Z,49.07
2018-05-27T01:02:00.318Z,48.97
2018-05-27T01:03:00.287Z,48.88
2018-05-27T01:04:00.150Z,48.30
2018-05-27T01:05:00.130Z,48.49
2018-05-27T01:06:00.101Z,48.79
2018-05-27T01:07:00.183Z,48.88
2018-05-27T01:08:00.606Z,48.79
2018-05-27T01:10:00.012Z,48.59
2018-05-27T01:10:59.982Z,49.17
2018-05-27T01:12:00.141Z,49.17
2018-05-27T01:12:59.931Z,48.97
2018-05-27T01:13:59.895Z,48.79
2018-05-27T01:14:59.879Z,49.07
2018-05-27T01:15:59.843Z,48.97
2018-05-27T01:16:59.926Z,48.69
2018-05-27T01:17:59.786Z,49.07
2018-05-27T01:18:59.772Z,48.79
2018-05-27T01:19:59.742Z,49.17
2018-05-27T01:20:59.705Z,49.17
2018-05-27T01:21:59.699Z,49.17
2018-05-27T01:22:59.711Z,49.37
2018-05-27T01:23:59.642Z,49.27
2018-05-27T01:24:59.598Z,49.37
2018-05-27T01:25:59.584Z,49.27
2018-05-27T01:26:59.575Z,49.56
2018-05-27T01:28:00.995Z,49.46
2018-05-27T01:28:59.516Z,49.27
2018-05-27T01:29:59.483Z,49.56
2018-05-27T01:30:59.455Z,50.24
2018-05-27T01:31:59.418Z,50.04
2018-05-27T01:32:59.406Z,50.04
2018-05-27T01:34:00.010Z,50.04
2018-05-27T01:34:59.390Z,50.33
2018-05-27T01:35:59.331Z,50.43
2018-05-27T01:36:59.331Z,50.52
2018-05-27T01:37:59.359Z,50.62
2018-05-27T01:38:59.747Z,50.24
2018-05-27T01:39:59.798Z,50.24
2018-05-27T01:40:59.172Z,50.82
2018-05-27T01:41:59.753Z,50.33
2018-05-27T01:42:59.140Z,50.62
2018-05-27T01:43:59.103Z,50.52
2018-05-27T01:44:59.737Z,51.01
2018-05-27T01:45:59.050Z,50.72
2018-05-27T01:46:59.529Z,50.89
2018-05-27T01:47:59.020Z,51.01
2018-05-27T01:48:58.987Z,50.62
2018-05-27T01:49:59.560Z,50.92
2018-05-27T01:50:58.944Z,51.10
2018-05-27T01:51:58.905Z,51.40
2018-05-27T01:52:59.429Z,51.20
2018-05-27T01:53:58.848Z,51.86
2018-05-27T01:54:58.863Z,52.17
2018-05-27T01:55:59.400Z,51.95
2018-05-27T01:56:59.308Z,51.78
2018-05-27T01:57:59.322Z,51.40
2018-05-27T01:58:58.709Z,51.68
2018-05-27T01:59:58.706Z,51.78
2018-05-27T02:00:59.292Z,51.98
2018-05-27T02:01:58.672Z,51.95
2018-05-27T02:02:58.685Z,52.46
2018-05-27T02:03:58.675Z,52.53
2018-05-27T02:04:58.633Z,52.53
2018-05-27T02:05:59.214Z,52.63
2018-05-27T02:06:59.010Z,52.14
2018-05-27T02:07:58.485Z,52.14
2018-05-27T02:08:58.565Z,52.63
2018-05-27T02:09:58.417Z,52.53
2018-05-27T02:10:58.385Z,52.34
2018-05-27T02:11:58.432Z,52.73
2018-05-27T02:12:58.365Z,52.82
2018-05-27T02:13:58.432Z,52.92
2018-05-27T02:14:58.787Z,52.82
2018-05-27T02:15:58.796Z,52.82
2018-05-27T02:16:58.388Z,52.92
2018-05-27T02:17:58.213Z,52.92
2018-05-27T02:18:58.200Z,52.92
2018-05-27T02:19:58.152Z,53.02
2018-05-27T02:20:58.139Z,53.21
2018-05-27T02:21:58.754Z,53.21
2018-05-27T02:22:58.093Z,53.02
2018-05-27T02:23:58.471Z,52.92
2018-05-27T02:24:58.022Z,53.02
2018-05-27T02:25:58.001Z,53.11
2018-05-27T02:26:58.035Z,53.11
2018-05-27T02:27:57.954Z,53.21
2018-05-27T02:28:58.010Z,53.41
2018-05-27T02:29:57.893Z,52.73
2018-05-27T02:30:57.880Z,53.21
2018-05-27T02:31:57.897Z,52.82
2018-05-27T02:32:57.897Z,53.11
2018-05-27T02:33:57.793Z,53.02
2018-05-27T02:34:57.836Z,53.31
2018-05-27T02:35:57.715Z,53.11
2018-05-27T02:36:58.277Z,53.31
2018-05-27T02:37:57.727Z,53.41
2018-05-27T02:38:57.668Z,53.50
2018-05-27T02:39:57.632Z,53.59
2018-05-27T02:40:57.597Z,53.89
2018-05-27T02:41:57.620Z,53.79
2018-05-27T02:42:57.667Z,53.69
2018-05-27T02:43:57.618Z,53.69
2018-05-27T02:44:57.479Z,53.50
2018-05-27T02:45:57.466Z,53.31
2018-05-27T02:46:57.519Z,54.27
2018-05-27T02:47:57.425Z,54.27
2018-05-27T02:48:57.775Z,54.37
2018-05-27T02:49:57.397Z,53.99
2018-05-27T02:50:57.335Z,54.17
2018-05-27T02:51:57.320Z,53.99
2018-05-27T02:52:57.279Z,53.99
2018-05-27T02:53:57.364Z,53.69
2018-05-27T02:54:57.227Z,53.69
2018-05-27T02:55:57.631Z,53.89
2018-05-27T02:56:57.164Z,54.57
2018-05-27T02:57:57.147Z,54.47
2018-05-27T02:58:57.245Z,54.47
2018-05-27T02:59:57.114Z,54.27
2018-05-27T03:00:57.061Z,54.37
2018-05-27T03:01:57.300Z,54.47
2018-05-27T03:02:57.027Z,54.27
2018-05-27T03:03:57.086Z,54.66
2018-05-27T03:04:56.995Z,54.47
2018-05-27T03:05:56.946Z,54.27
2018-05-27T03:06:56.936Z,54.37
2018-05-27T03:07:56.877Z,54.17
2018-05-27T03:08:57.551Z,54.37
2018-05-27T03:09:56.928Z,54.75
2018-05-27T03:10:56.830Z,54.85
2018-05-27T03:11:57.307Z,54.85
2018-05-27T03:12:56.740Z,54.85
2018-05-27T03:13:56.709Z,54.75
2018-05-27T03:14:56.814Z,54.66
2018-05-27T03:15:57.198Z,54.95
2018-05-27T03:16:56.639Z,55.24
2018-05-27T03:17:57.141Z,55.24
2018-05-27T03:18:56.593Z,55.15
2018-05-27T03:19:56.690Z,55.05
2018-05-27T03:20:56.562Z,55.15
2018-05-27T03:21:56.541Z,54.85
2018-05-27T03:22:56.531Z,54.85
2018-05-27T03:23:56.462Z,55.43
2018-05-27T03:24:56.960Z,55.34
2018-05-27T03:25:56.497Z,55.53
2018-05-27T03:26:56.384Z,55.63
2018-05-27T03:27:56.458Z,55.34
2018-05-27T03:28:56.638Z,55.43
2018-05-27T03:29:56.326Z,55.63
2018-05-27T03:30:56.328Z,55.43
2018-05-27T03:31:56.293Z,55.43
2018-05-27T03:32:56.285Z,55.63
2018-05-27T03:33:56.274Z,55.34
2018-05-27T03:34:56.157Z,55.15
2018-05-27T03:35:56.154Z,55.15
2018-05-27T03:36:56.158Z,55.34
2018-05-27T03:37:56.176Z,55.43
2018-05-27T03:38:56.091Z,55.34
2018-05-27T03:39:56.072Z,55.43
2018-05-27T03:40:56.009Z,55.53
2018-05-27T03:41:55.968Z,55.73
2018-05-27T03:42:56.012Z,55.53
2018-05-27T03:43:55.976Z,55.63
2018-05-27T03:44:55.889Z,55.73
2018-05-27T03:45:55.864Z,55.63
2018-05-27T03:46:55.849Z,55.92
2018-05-27T03:47:55.825Z,55.63
2018-05-27T03:48:55.929Z,55.92
2018-05-27T03:49:55.783Z,55.82
2018-05-27T03:50:55.740Z,55.92
2018-05-27T03:51:55.709Z,56.02
2018-05-27T03:52:55.687Z,56.11
2018-05-27T03:53:55.729Z,55.92
2018-05-27T03:54:55.639Z,56.11
2018-05-27T03:55:55.603Z,56.50
2018-05-27T03:56:55.614Z,56.60
2018-05-27T03:57:55.541Z,56.21
2018-05-27T03:58:55.579Z,55.92
2018-05-27T03:59:55.493Z,56.02
2018-05-27T04:00:55.467Z,56.21
2018-05-27T04:01:55.489Z,55.92
2018-05-27T04:02:55.412Z,56.30
2018-05-27T04:03:55.436Z,56.09
2018-05-27T04:04:55.447Z,56.02
2018-05-27T04:05:55.368Z,56.02
2018-05-27T04:06:55.330Z,56.79
2018-05-27T04:07:55.295Z,56.60
2018-05-27T04:08:55.266Z,56.79
2018-05-27T04:09:55.285Z,56.79
2018-05-27T04:10:55.212Z,56.88
2018-05-27T04:11:55.191Z,56.60
2018-05-27T04:12:55.169Z,56.50
2018-05-27T04:13:55.123Z,56.50
2018-05-27T04:14:55.150Z,56.79
2018-05-27T04:15:55.177Z,56.70
2018-05-27T04:16:55.047Z,56.86
2018-05-27T04:17:55.024Z,56.70
2018-05-27T04:18:55.022Z,56.79
2018-05-27T04:19:54.975Z,56.50
2018-05-27T04:20:55.052Z,56.67
2018-05-27T04:21:54.910Z,56.50
2018-05-27T04:22:54.901Z,56.50
2018-05-27T04:23:55.184Z,56.70
2018-05-27T04:24:54.844Z,56.70
2018-05-27T04:25:54.862Z,56.79
2018-05-27T04:26:54.791Z,56.98
2018-05-27T04:27:55.292Z,57.18
2018-05-27T04:28:54.826Z,57.18
2018-05-27T04:29:54.711Z,57.37
2018-05-27T04:30:54.786Z,57.46
2018-05-27T04:31:54.647Z,57.46
2018-05-27T04:32:54.619Z,57.37
2018-05-27T04:33:54.703Z,57.44
2018-05-27T04:34:54.589Z,56.98
2018-05-27T04:35:54.593Z,57.08
2018-05-27T04:36:54.528Z,57.15
2018-05-27T04:37:54.491Z,57.63
2018-05-27T04:38:54.575Z,57.56
2018-05-27T04:39:54.455Z,57.54
2018-05-27T04:40:54.402Z,56.98
2018-05-27T04:41:54.529Z,57.56
2018-05-27T04:42:54.429Z,57.95
2018-05-27T04:43:54.409Z,58.04
2018-05-27T04:44:54.312Z,57.73
2018-05-27T04:45:54.296Z,57.66
2018-05-27T04:46:54.293Z,57.92
2018-05-27T04:47:54.286Z,57.73
2018-05-27T04:48:54.219Z,58.12
2018-05-27T04:49:54.191Z,57.92
2018-05-27T04:50:54.143Z,58.80
2018-05-27T04:51:54.135Z,58.60
2018-05-27T04:52:54.218Z,58.40
2018-05-27T04:53:54.060Z,58.31
2018-05-27T04:54:54.035Z,58.02
2018-05-27T04:55:54.022Z,58.50
2018-05-27T04:56:53.989Z,58.40
2018-05-27T04:57:54.038Z,58.50
2018-05-27T04:58:53.961Z,58.37
2018-05-27T04:59:53.914Z,58.57
2018-05-27T05:00:53.910Z,58.60
2018-05-27T05:01:53.873Z,58.57
2018-05-27T05:02:53.940Z,59.15
2018-05-27T05:03:54.110Z,58.57
2018-05-27T05:04:53.768Z,58.57
2018-05-27T05:05:53.750Z,58.76
2018-05-27T05:06:53.718Z,58.57
2018-05-27T05:07:53.738Z,58.67
2018-05-27T05:08:53.784Z,58.28
2018-05-27T05:09:53.662Z,58.86
2018-05-27T05:10:53.611Z,58.95
2018-05-27T05:11:53.596Z,58.37
2018-05-27T05:12:53.617Z,58.67
2018-05-27T05:13:53.529Z,58.67
2018-05-27T05:14:53.543Z,58.47
2018-05-27T05:15:53.493Z,58.37
2018-05-27T05:16:53.451Z,58.67
2018-05-27T05:17:53.421Z,59.05
2018-05-27T05:18:53.501Z,59.05
2018-05-27T05:19:53.398Z,59.15
2018-05-27T05:20:53.351Z,59.05
2018-05-27T05:21:53.345Z,59.15
2018-05-27T05:22:53.301Z,58.67
2018-05-27T05:23:53.275Z,58.47
2018-05-27T05:24:53.374Z,58.67
2018-05-27T05:25:53.224Z,59.05
2018-05-27T05:26:53.201Z,59.05
2018-05-27T05:27:53.163Z,58.76
2018-05-27T05:28:53.247Z,58.67
2018-05-27T05:29:53.220Z,59.05
2018-05-27T05:30:53.109Z,59.05
2018-05-27T05:31:53.062Z,58.95
2018-05-27T05:32:53.035Z,58.95
2018-05-27T05:33:53.093Z,59.44
2018-05-27T05:34:53.046Z,60.02
2018-05-27T05:35:52.945Z,60.02
2018-05-27T05:36:52.962Z,59.83
2018-05-27T05:37:52.898Z,59.92
2018-05-27T05:38:52.874Z,60.02
2018-05-27T05:39:52.932Z,59.83
2018-05-27T05:40:52.807Z,59.63
2018-05-27T05:41:52.778Z,59.63
2018-05-27T05:42:52.767Z,59.73
2018-05-27T05:43:52.739Z,59.63
2018-05-27T05:44:52.797Z,59.60
2018-05-27T05:45:52.667Z,59.73
2018-05-27T05:46:52.656Z,59.89
2018-05-27T05:47:52.626Z,60.09
2018-05-27T05:48:52.598Z,60.31
2018-05-27T05:49:52.616Z,60.21
2018-05-27T05:50:52.556Z,59.99
2018-05-27T05:51:52.517Z,59.92
2018-05-27T05:52:52.506Z,59.99
2018-05-27T05:53:52.467Z,60.47
2018-05-27T05:54:52.465Z,60.47
2018-05-27T05:55:52.457Z,60.31
2018-05-27T05:56:52.385Z,60.38
2018-05-27T05:57:52.373Z,60.28
2018-05-27T05:58:52.322Z,60.09
2018-05-27T05:59:52.319Z,60.31
2018-05-27T06:00:52.296Z,60.38
2018-05-27T06:01:52.344Z,60.57
2018-05-27T06:02:52.230Z,60.47
2018-05-27T06:03:52.200Z,60.21
2018-05-27T06:04:52.204Z,60.86
2018-05-27T06:05:52.132Z,60.67
2018-05-27T06:06:52.220Z,60.86
2018-05-27T06:07:52.096Z,60.99
2018-05-27T06:08:52.061Z,60.86
2018-05-27T06:09:52.045Z,60.57
2018-05-27T06:10:52.004Z,60.38
2018-05-27T06:11:52.041Z,61.15
2018-05-27T06:12:51.962Z,61.15
2018-05-27T06:13:51.928Z,60.96
2018-05-27T06:14:51.906Z,61.25
2018-05-27T06:15:51.872Z,61.05
2018-05-27T06:16:51.941Z,61.25
2018-05-27T06:17:51.812Z,61.34
2018-05-27T06:18:51.787Z,61.05
2018-05-27T06:19:52.087Z,61.25
2018-05-27T06:20:51.733Z,61.25
2018-05-27T06:21:51.758Z,61.73
2018-05-27T06:22:51.693Z,61.83
2018-05-27T06:23:51.664Z,62.12
2018-05-27T06:24:51.618Z,61.73
2018-05-27T06:25:51.607Z,61.73
2018-05-27T06:26:51.622Z,61.83
2018-05-27T06:27:51.553Z,61.54
2018-05-27T06:28:51.508Z,61.86
2018-05-27T06:29:51.499Z,61.83
2018-05-27T06:30:51.459Z,62.02
2018-05-27T06:31:51.449Z,61.92
2018-05-27T06:32:51.466Z,62.50
2018-05-27T06:33:51.380Z,62.70
2018-05-27T06:34:51.468Z,62.21
2018-05-27T06:35:51.347Z,62.40
2018-05-27T06:36:51.328Z,62.60
2018-05-27T06:37:51.355Z,62.70
2018-05-27T06:38:51.248Z,62.70
2018-05-27T06:39:51.242Z,62.89
2018-05-27T06:40:51.258Z,62.89
2018-05-27T06:41:51.162Z,63.08
2018-05-27T06:42:51.138Z,63.28
2018-05-27T06:43:51.236Z,63.18
2018-05-27T06:44:51.099Z,62.79
2018-05-27T06:45:51.052Z,62.79
2018-05-27T06:46:51.051Z,62.98
2018-05-27T06:47:51.027Z,63.28
2018-05-27T06:48:51.047Z,63.18
2018-05-27T06:49:50.953Z,63.08
2018-05-27T06:50:50.941Z,63.66
2018-05-27T06:51:50.911Z,63.76
2018-05-27T06:52:50.892Z,63.76
2018-05-27T06:53:50.896Z,63.66
2018-05-27T06:54:50.815Z,63.95
2018-05-27T06:55:50.862Z,63.85
2018-05-27T06:56:50.773Z,63.76
2018-05-27T06:57:50.741Z,63.56
2018-05-27T06:58:50.807Z,63.66
2018-05-27T06:59:50.683Z,63.76
2018-05-27T07:00:50.679Z,63.56
2018-05-27T07:01:50.662Z,64.34
2018-05-27T07:02:50.630Z,63.95
2018-05-27T07:03:50.572Z,64.34
2018-05-27T07:04:50.705Z,64.14
2018-05-27T07:05:50.528Z,64.72
2018-05-27T07:06:50.498Z,64.63
2018-05-27T07:07:50.460Z,64.34
2018-05-27T07:08:50.427Z,64.82
2018-05-27T07:09:50.415Z,64.82
2018-05-27T07:10:50.388Z,64.92
2018-05-27T07:11:50.366Z,65.01
2018-05-27T07:12:50.352Z,65.20
2018-05-27T07:13:50.327Z,65.11
2018-05-27T07:14:50.278Z,64.82
2018-05-27T07:15:50.259Z,64.82
2018-05-27T07:16:50.238Z,65.01
2018-05-27T07:17:50.234Z,65.01
2018-05-27T07:18:50.187Z,65.78
2018-05-27T07:19:50.140Z,65.69
2018-05-27T07:20:50.219Z,65.69
2018-05-27T07:21:50.082Z,65.11
2018-05-27T07:22:50.073Z,65.11
2018-05-27T07:23:50.032Z,65.40
2018-05-27T07:24:50.003Z,65.78
2018-05-27T07:25:50.104Z,65.98
2018-05-27T07:26:49.953Z,65.69
2018-05-27T07:27:49.955Z,65.98
2018-05-27T07:28:49.910Z,66.27
2018-05-27T07:29:49.960Z,66.17
2018-05-27T07:30:49.918Z,66.17
2018-05-27T07:31:49.819Z,65.88
2018-05-27T07:32:49.788Z,66.08
2018-05-27T07:33:49.780Z,66.08
2018-05-27T07:34:49.747Z,65.88
2018-05-27T07:35:49.762Z,65.88
2018-05-27T07:36:49.686Z,65.98
2018-05-27T07:37:49.672Z,65.98
2018-05-27T07:38:49.642Z,66.17
2018-05-27T07:39:49.612Z,66.36
2018-05-27T07:40:49.663Z,66.66
2018-05-27T07:41:49.616Z,66.46
2018-05-27T07:42:49.525Z,66.27
2018-05-27T07:43:49.487Z,66.36
2018-05-27T07:44:49.473Z,66.85
2018-05-27T07:45:49.460Z,66.85
2018-05-27T07:46:49.418Z,66.85
2018-05-27T07:47:49.410Z,66.94
2018-05-27T07:48:49.390Z,66.94
2018-05-27T07:49:49.338Z,67.04
2018-05-27T07:50:49.306Z,67.24
2018-05-27T07:51:49.294Z,66.46
2018-05-27T07:52:49.264Z,66.75
2018-05-27T07:53:49.230Z,66.94
2018-05-27T07:54:49.226Z,66.94
2018-05-27T07:55:49.182Z,67.43
2018-05-27T07:56:49.158Z,67.33
2018-05-27T07:57:49.130Z,67.24
2018-05-27T07:58:49.130Z,67.24
2018-05-27T07:59:49.076Z,67.43
2018-05-27T08:00:49.032Z,67.33
2018-05-27T08:01:49.013Z,67.62
2018-05-27T08:02:49.042Z,68.01
2018-05-27T08:03:48.951Z,67.91
2018-05-27T08:04:48.922Z,67.91
2018-05-27T08:05:48.907Z,68.01
2018-05-27T08:06:48.878Z,68.01
2018-05-27T08:07:48.958Z,68.01
2018-05-27T08:08:48.817Z,67.62
2018-05-27T08:09:48.799Z,67.82
2018-05-27T08:10:48.769Z,67.72
2018-05-27T08:11:48.734Z,67.72
2018-05-27T08:12:48.720Z,67.62
2018-05-27T08:13:48.674Z,67.72
2018-05-27T08:14:48.643Z,68.40
2018-05-27T08:15:48.645Z,68.40
2018-05-27T08:16:48.628Z,67.82
2018-05-27T08:17:48.597Z,67.72
2018-05-27T08:18:48.731Z,67.62
2018-05-27T08:19:48.552Z,67.82
2018-05-27T08:20:48.491Z,68.20
2018-05-27T08:21:48.485Z,68.10
2018-05-27T08:22:48.449Z,68.40
2018-05-27T08:23:48.407Z,68.59
2018-05-27T08:24:48.411Z,68.40
2018-05-27T08:25:48.363Z,68.30
2018-05-27T08:26:48.334Z,68.49
2018-05-27T08:27:48.300Z,68.49
2018-05-27T08:28:48.295Z,68.68
2018-05-27T08:29:48.296Z,68.59
2018-05-27T08:30:48.243Z,68.59
2018-05-27T08:31:48.203Z,68.20
2018-05-27T08:32:48.159Z,68.30
2018-05-27T08:33:48.156Z,68.49
2018-05-27T08:34:48.146Z,68.30
2018-05-27T08:35:48.084Z,68.78
2018-05-27T08:36:48.060Z,68.68
2018-05-27T08:37:48.046Z,68.68
2018-05-27T08:38:48.026Z,68.68
2018-05-27T08:39:48.019Z,68.68
2018-05-27T08:40:47.972Z,68.68
2018-05-27T08:41:47.920Z,68.68
2018-05-27T08:42:47.907Z,68.40
2018-05-27T08:43:47.886Z,68.40
2018-05-27T08:44:47.847Z,69.56
2018-05-27T08:45:47.872Z,68.98
2018-05-27T08:46:47.782Z,69.56
2018-05-27T08:47:47.768Z,69.36
2018-05-27T08:48:47.752Z,69.17
2018-05-27T08:49:47.708Z,68.98
2018-05-27T08:50:47.673Z,69.17
2018-05-27T08:51:47.653Z,69.07
2018-05-27T08:52:47.646Z,69.36
2018-05-27T08:53:47.603Z,68.88
2018-05-27T08:54:47.582Z,69.36
2018-05-27T08:55:47.571Z,69.74
2018-05-27T08:56:47.520Z,69.17
2018-05-27T08:57:47.506Z,69.56
2018-05-27T08:58:47.470Z,69.74
2018-05-27T08:59:47.458Z,69.26
2018-05-27T09:00:47.531Z,69.36
2018-05-27T09:01:47.382Z,69.74
2018-05-27T09:02:47.372Z,69.46
2018-05-27T09:03:47.396Z,69.65
2018-05-27T09:04:47.313Z,69.56
2018-05-27T09:05:47.275Z,69.46
2018-05-27T09:06:47.263Z,69.56
2018-05-27T09:07:47.303Z,69.46
2018-05-27T09:08:47.207Z,69.56
2018-05-27T09:09:47.159Z,69.36
2018-05-27T09:10:47.151Z,69.46
2018-05-27T09:11:47.212Z,69.65
2018-05-27T09:12:47.077Z,69.94
2018-05-27T09:13:47.050Z,69.74
2018-05-27T09:14:47.035Z,69.74
2018-05-27T09:15:46.999Z,70.14
2018-05-27T09:16:47.079Z,70.04
2018-05-27T09:17:46.950Z,70.52
2018-05-27T09:18:46.930Z,70.04
2018-05-27T09:19:46.896Z,70.04
2018-05-27T09:20:46.882Z,69.94
2018-05-27T09:21:46.922Z,69.84
2018-05-27T09:22:46.877Z,70.23
2018-05-27T09:23:46.790Z,70.23
2018-05-27T09:24:46.770Z,70.23
2018-05-27T09:25:46.754Z,70.52
2018-05-27T09:26:46.708Z,70.52
2018-05-27T09:27:46.673Z,70.32
2018-05-27T09:28:46.641Z,70.81
2018-05-27T09:29:46.627Z,70.90
2018-05-27T09:30:46.619Z,71.10
2018-05-27T09:31:46.579Z,70.81
2018-05-27T09:32:46.544Z,71.10
2018-05-27T09:33:46.527Z,70.72
2018-05-27T09:34:46.482Z,70.52
2018-05-27T09:35:46.478Z,71.30
2018-05-27T09:36:46.435Z,70.72
2018-05-27T09:37:46.518Z,70.72
2018-05-27T09:38:46.378Z,71.20
2018-05-27T09:39:46.351Z,71.00
2018-05-27T09:40:46.333Z,71.30
2018-05-27T09:41:46.302Z,70.52
2018-05-27T09:42:46.292Z,71.00
2018-05-27T09:43:46.251Z,71.20
2018-05-27T09:44:46.215Z,71.00
2018-05-27T09:45:46.219Z,70.90
2018-05-27T09:46:46.168Z,71.00
2018-05-27T09:47:46.126Z,71.48
2018-05-27T09:48:46.124Z,71.68
2018-05-27T09:49:46.100Z,71.58
2018-05-27T09:50:46.062Z,71.20
2018-05-27T09:51:46.035Z,71.97
2018-05-27T09:52:46.015Z,71.78
2018-05-27T09:53:45.968Z,71.78
2018-05-27T09:54:45.937Z,71.39
2018-05-27T09:55:45.919Z,71.48
2018-05-27T09:56:45.888Z,71.58
2018-05-27T09:57:45.911Z,71.78
2018-05-27T09:58:45.945Z,71.48
2018-05-27T09:59:45.835Z,71.58
2018-05-27T10:00:45.788Z,71.58
2018-05-27T10:01:45.761Z,71.30
2018-05-27T10:02:45.737Z,71.58
2018-05-27T10:03:45.823Z,71.68
2018-05-27T10:04:45.677Z,71.78
2018-05-27T10:05:45.646Z,71.30
2018-05-27T10:06:45.643Z,71.36
2018-05-27T10:07:45.592Z,71.36
2018-05-27T10:08:45.661Z,71.68
2018-05-27T10:09:45.533Z,71.58
2018-05-27T10:10:45.513Z,72.03
2018-05-27T10:11:45.524Z,71.97
2018-05-27T10:12:45.517Z,72.03
2018-05-27T10:13:45.434Z,71.97
2018-05-27T10:14:45.429Z,72.06
2018-05-27T10:15:45.389Z,72.13
2018-05-27T10:16:45.354Z,71.88
2018-05-27T10:17:45.331Z,71.78
2018-05-27T10:18:45.310Z,71.78
2018-05-27T10:19:45.367Z,72.03
2018-05-27T10:20:45.250Z,71.84
2018-05-27T10:21:45.224Z,71.64
2018-05-27T10:22:45.192Z,71.88
2018-05-27T10:23:45.166Z,71.88
2018-05-27T10:24:45.191Z,71.97
2018-05-27T10:25:45.170Z,71.88
2018-05-27T10:26:45.087Z,71.88
2018-05-27T10:27:45.065Z,71.68
2018-05-27T10:28:45.032Z,72.03
2018-05-27T10:29:45.020Z,72.06
2018-05-27T10:30:44.973Z,72.03
2018-05-27T10:31:44.937Z,71.88
2018-05-27T10:32:44.937Z,72.03
2018-05-27T10:33:44.888Z,72.26
2018-05-27T10:34:44.885Z,72.26
2018-05-27T10:35:44.878Z,71.94
2018-05-27T10:36:44.807Z,72.13
2018-05-27T10:37:44.810Z,72.13
2018-05-27T10:38:44.772Z,72.22
2018-05-27T10:39:44.729Z,72.03
2018-05-27T10:40:44.822Z,72.13
2018-05-27T10:41:44.675Z,72.03
2018-05-27T10:42:44.640Z,72.52
2018-05-27T10:43:44.628Z,72.06
2018-05-27T10:44:44.597Z,72.61
2018-05-27T10:45:44.678Z,72.16
2018-05-27T10:46:45.047Z,72.64
2018-05-27T10:47:44.571Z,72.55
2018-05-27T10:48:44.472Z,72.74
2018-05-27T10:49:44.471Z,72.26
2018-05-27T10:50:44.614Z,72.13
2018-05-27T10:51:44.586Z,72.42
2018-05-27T10:52:44.516Z,72.16
2018-05-27T10:53:44.402Z,72.42
2018-05-27T10:54:44.382Z,72.52
2018-05-27T10:55:44.506Z,72.55
2018-05-27T10:56:44.548Z,72.64
2018-05-27T10:57:44.392Z,71.74
2018-05-27T10:58:44.313Z,72.52
2018-05-27T10:59:44.269Z,72.61
2018-05-27T11:00:44.154Z,72.61
2018-05-27T11:01:44.124Z,72.26
2018-05-27T11:02:44.110Z,71.55
2018-05-27T11:03:44.082Z,72.36
2018-05-27T11:04:44.045Z,72.06
2018-05-27T11:05:44.063Z,72.74
2018-05-27T11:06:43.997Z,72.71
2018-05-27T11:07:43.956Z,73.03
2018-05-27T11:08:43.954Z,72.26
2018-05-27T11:09:43.906Z,72.74
2018-05-27T11:10:43.883Z,72.74
2018-05-27T11:11:43.890Z,72.36
2018-05-27T11:12:43.878Z,72.74
2018-05-27T11:13:43.807Z,73.03
2018-05-27T11:14:43.796Z,72.45
2018-05-27T11:15:43.770Z,72.55
2018-05-27T11:16:43.762Z,72.45
2018-05-27T11:17:43.797Z,72.45
2018-05-27T11:18:43.676Z,72.36
2018-05-27T11:19:43.656Z,72.45
2018-05-27T11:20:43.666Z,72.64
2018-05-27T11:21:43.585Z,72.16
2018-05-27T11:22:43.699Z,72.45
2018-05-27T11:23:43.549Z,72.45
2018-05-27T11:24:43.648Z,72.45
2018-05-27T11:25:43.470Z,72.55
2018-05-27T11:26:43.542Z,72.55
2018-05-27T11:27:43.513Z,72.36
2018-05-27T11:28:43.626Z,72.36
2018-05-27T11:29:43.557Z,72.64
2018-05-27T11:30:43.551Z,72.84
2018-05-27T11:31:43.398Z,72.74
2018-05-27T11:32:43.296Z,72.64
2018-05-27T11:33:43.577Z,72.55
2018-05-27T11:34:43.280Z,73.22
2018-05-27T11:35:43.208Z,72.64
2018-05-27T11:36:43.172Z,72.64
2018-05-27T11:37:43.160Z,72.74
2018-05-27T11:38:43.202Z,73.03
2018-05-27T11:39:43.100Z,72.64
2018-05-27T11:40:43.080Z,73.03
2018-05-27T11:41:43.062Z,73.22
2018-05-27T11:42:43.016Z,73.36
2018-05-27T11:43:43.010Z,73.22
2018-05-27T11:44:43.012Z,73.22
2018-05-27T11:45:42.952Z,73.22
2018-05-27T11:46:42.905Z,73.36
2018-05-27T11:47:42.897Z,73.07
2018-05-27T11:48:42.877Z,72.68
2018-05-27T11:49:42.935Z,72.84
2018-05-27T11:50:42.797Z,72.68
2018-05-27T11:51:42.800Z,72.68
2018-05-27T11:52:42.755Z,72.49
2018-05-27T11:53:42.719Z,72.39
2018-05-27T11:54:42.862Z,72.49
2018-05-27T11:55:42.689Z,72.68
2018-05-27T11:56:42.651Z,72.78
2018-05-27T11:57:42.626Z,72.58
2018-05-27T11:58:42.579Z,73.07
2018-05-27T11:59:42.635Z,72.68
2018-05-27T12:00:42.540Z,73.16
2018-05-27T12:01:42.578Z,72.97
2018-05-27T12:02:42.495Z,72.58
2018-05-27T12:03:42.477Z,72.30
2018-05-27T12:04:42.433Z,72.58
2018-05-27T12:05:42.485Z,72.88
2018-05-27T12:06:42.371Z,72.49
2018-05-27T12:07:42.364Z,72.81
2018-05-27T12:08:42.334Z,72.81
2018-05-27T12:09:42.534Z,72.14
2018-05-27T12:10:42.263Z,72.14
2018-05-27T12:11:42.285Z,72.04
2018-05-27T12:12:42.259Z,72.42
2018-05-27T12:13:42.193Z,71.66
2018-05-27T12:14:42.169Z,71.50
2018-05-27T12:15:42.173Z,71.69
2018-05-27T12:16:42.113Z,71.75
2018-05-27T12:17:42.098Z,71.50
2018-05-27T12:18:42.062Z,71.78
2018-05-27T12:19:42.040Z,71.66
2018-05-27T12:20:42.050Z,71.26
2018-05-27T12:21:41.997Z,71.66
2018-05-27T12:22:41.960Z,71.66
2018-05-27T12:23:41.916Z,71.84
2018-05-27T12:24:41.908Z,71.50
2018-05-27T12:25:41.954Z,71.50
2018-05-27T12:26:41.834Z,71.36
2018-05-27T12:27:41.806Z,71.59
2018-05-27T12:28:41.810Z,71.20
2018-05-27T12:29:41.803Z,70.92
2018-05-27T12:30:41.848Z,70.24
2018-05-27T12:31:41.713Z,70.82
2018-05-27T12:32:41.703Z,70.24
2018-05-27T12:33:41.670Z,70.24
2018-05-27T12:34:41.617Z,70.34
2018-05-27T12:35:41.648Z,70.24
2018-05-27T12:36:41.567Z,71.01
2018-05-27T12:37:41.587Z,70.43
2018-05-27T12:38:41.524Z,70.82
2018-05-27T12:39:41.506Z,71.11
2018-05-27T12:40:41.513Z,70.62
2018-05-27T12:41:41.534Z,70.53
2018-05-27T12:42:41.510Z,70.43
2018-05-27T12:43:41.391Z,70.53
2018-05-27T12:44:41.451Z,70.53
2018-05-27T12:45:41.336Z,70.04
2018-05-27T12:46:41.325Z,70.14
2018-05-27T12:47:41.329Z,70.24
2018-05-27T12:48:41.263Z,70.24
2018-05-27T12:49:41.227Z,69.95
2018-05-27T12:50:41.196Z,69.66
2018-05-27T12:51:41.170Z,70.24
2018-05-27T12:52:41.258Z,69.85